sensor_id;sensor_type;location;lat;lon;timestamp;temperature;humidity
31527;DHT22;18136;42.236;-73.040;2023-04-03T00:02:25;1.10;85.80
31527;DHT22;18136;42.236;-73.040;2023-04-03T00:04:51;1.00;87.00
31527;DHT22;18136;42.236;-73.040;2023-04-03T00:07:17;1.00;86.90
31527;DHT22;18136;42.236;-73.040;2023-04-03T00:09:43;1.00;85.50
31527;DHT22;18136;42.236;-73.040;2023-04-03T00:12:09;1.00;85.40
31527;DHT22;18136;42.236;-73.040;2023-04-03T00:14:36;0.90;85.80
31527;DHT22;18136;42.236;-73.040;2023-04-03T00:17:02;0.90;85.80
31527;DHT22;18136;42.236;-73.040;2023-04-03T00:19:31;0.90;85.20
31527;DHT22;18136;42.236;-73.040;2023-04-03T00:21:58;0.80;85.20
31527;DHT22;18136;42.236;-73.040;2023-04-03T00:24:24;0.80;88.20
31527;DHT22;18136;42.236;-73.040;2023-04-03T00:26:50;0.80;88.60
31527;DHT22;18136;42.236;-73.040;2023-04-03T00:29:16;0.70;89.00
31527;DHT22;18136;42.236;-73.040;2023-04-03T00:31:42;0.70;88.50
31527;DHT22;18136;42.236;-73.040;2023-04-03T00:34:09;0.70;88.30
31527;DHT22;18136;42.236;-73.040;2023-04-03T00:36:35;0.60;88.50
31527;DHT22;18136;42.236;-73.040;2023-04-03T00:39:02;0.60;87.30
31527;DHT22;18136;42.236;-73.040;2023-04-03T00:41:28;0.60;88.60
31527;DHT22;18136;42.236;-73.040;2023-04-03T00:43:54;0.50;87.70
31527;DHT22;18136;42.236;-73.040;2023-04-03T00:46:21;0.50;88.00
31527;DHT22;18136;42.236;-73.040;2023-04-03T00:48:48;0.50;88.40
31527;DHT22;18136;42.236;-73.040;2023-04-03T00:51:19;0.50;89.80
31527;DHT22;18136;42.236;-73.040;2023-04-03T00:53:50;0.50;89.10
31527;DHT22;18136;42.236;-73.040;2023-04-03T00:56:19;0.40;89.00
31527;DHT22;18136;42.236;-73.040;2023-04-03T00:59:03;0.30;85.70
31527;DHT22;18136;42.236;-73.040;2023-04-03T01:01:30;0.30;86.80
31527;DHT22;18136;42.236;-73.040;2023-04-03T01:03:59;0.30;88.30
31527;DHT22;18136;42.236;-73.040;2023-04-03T01:06:34;0.20;87.30
31527;DHT22;18136;42.236;-73.040;2023-04-03T01:09:02;0.20;88.50
31527;DHT22;18136;42.236;-73.040;2023-04-03T01:11:34;0.20;89.00
31527;DHT22;18136;42.236;-73.040;2023-04-03T01:14:01;0.20;88.50
31527;DHT22;18136;42.236;-73.040;2023-04-03T01:16:28;0.20;88.50
31527;DHT22;18136;42.236;-73.040;2023-04-03T01:18:56;0.10;88.30
31527;DHT22;18136;42.236;-73.040;2023-04-03T01:21:49;0.10;89.20
31527;DHT22;18136;42.236;-73.040;2023-04-03T01:24:30;0.10;89.30
31527;DHT22;18136;42.236;-73.040;2023-04-03T01:26:59;0.10;89.50
31527;DHT22;18136;42.236;-73.040;2023-04-03T01:29:26;0.10;88.80
31527;DHT22;18136;42.236;-73.040;2023-04-03T01:32:00;0.10;90.50
31527;DHT22;18136;42.236;-73.040;2023-04-03T01:34:29;0.10;89.60
31527;DHT22;18136;42.236;-73.040;2023-04-03T01:36:55;0.10;88.80
31527;DHT22;18136;42.236;-73.040;2023-04-03T01:39:22;0.00;90.60
31527;DHT22;18136;42.236;-73.040;2023-04-03T01:41:50;0.00;91.00
31527;DHT22;18136;42.236;-73.040;2023-04-03T01:44:18;0.00;91.00
31527;DHT22;18136;42.236;-73.040;2023-04-03T01:46:44;-0.10;91.10
31527;DHT22;18136;42.236;-73.040;2023-04-03T01:49:10;0.00;91.50
31527;DHT22;18136;42.236;-73.040;2023-04-03T01:51:37;0.00;92.00
31527;DHT22;18136;42.236;-73.040;2023-04-03T01:54:03;-0.10;91.40
31527;DHT22;18136;42.236;-73.040;2023-04-03T01:56:30;-0.10;91.30
31527;DHT22;18136;42.236;-73.040;2023-04-03T01:58:56;-0.10;91.60
31527;DHT22;18136;42.236;-73.040;2023-04-03T02:01:22;-0.10;91.80
31527;DHT22;18136;42.236;-73.040;2023-04-03T02:03:49;-0.20;92.10
31527;DHT22;18136;42.236;-73.040;2023-04-03T02:06:16;-0.20;91.80
31527;DHT22;18136;42.236;-73.040;2023-04-03T02:08:42;-0.20;91.60
31527;DHT22;18136;42.236;-73.040;2023-04-03T02:11:08;-0.20;90.70
31527;DHT22;18136;42.236;-73.040;2023-04-03T02:13:37;-0.20;90.60
31527;DHT22;18136;42.236;-73.040;2023-04-03T02:16:08;-0.20;91.70
31527;DHT22;18136;42.236;-73.040;2023-04-03T02:18:36;-0.30;91.90
31527;DHT22;18136;42.236;-73.040;2023-04-03T02:21:02;-0.30;91.90
31527;DHT22;18136;42.236;-73.040;2023-04-03T02:23:28;-0.30;92.20
31527;DHT22;18136;42.236;-73.040;2023-04-03T02:26:03;-0.30;92.70
31527;DHT22;18136;42.236;-73.040;2023-04-03T02:28:29;-0.30;91.60
31527;DHT22;18136;42.236;-73.040;2023-04-03T02:30:55;-0.30;91.70
31527;DHT22;18136;42.236;-73.040;2023-04-03T02:33:21;-0.30;90.70
31527;DHT22;18136;42.236;-73.040;2023-04-03T02:35:52;-0.30;91.60
31527;DHT22;18136;42.236;-73.040;2023-04-03T02:38:19;-0.30;92.10
31527;DHT22;18136;42.236;-73.040;2023-04-03T02:40:45;-0.30;91.60
31527;DHT22;18136;42.236;-73.040;2023-04-03T02:43:11;-0.30;91.30
31527;DHT22;18136;42.236;-73.040;2023-04-03T02:45:38;-0.40;91.30
31527;DHT22;18136;42.236;-73.040;2023-04-03T02:48:04;-0.40;91.30
31527;DHT22;18136;42.236;-73.040;2023-04-03T02:50:31;-0.40;91.20
31527;DHT22;18136;42.236;-73.040;2023-04-03T02:52:57;-0.50;91.10
31527;DHT22;18136;42.236;-73.040;2023-04-03T02:55:23;-0.40;91.10
31527;DHT22;18136;42.236;-73.040;2023-04-03T02:57:49;-0.40;91.80
31527;DHT22;18136;42.236;-73.040;2023-04-03T03:00:15;-0.40;91.60
31527;DHT22;18136;42.236;-73.040;2023-04-03T03:02:42;-0.40;90.00
31527;DHT22;18136;42.236;-73.040;2023-04-03T03:05:08;-0.50;90.60
31527;DHT22;18136;42.236;-73.040;2023-04-03T03:07:34;-0.60;91.40
31527;DHT22;18136;42.236;-73.040;2023-04-03T03:10:01;-0.60;92.30
31527;DHT22;18136;42.236;-73.040;2023-04-03T03:12:27;-0.50;92.60
31527;DHT22;18136;42.236;-73.040;2023-04-03T03:14:53;-0.50;92.70
31527;DHT22;18136;42.236;-73.040;2023-04-03T03:17:19;-0.50;93.20
31527;DHT22;18136;42.236;-73.040;2023-04-03T03:19:45;-0.50;93.20
31527;DHT22;18136;42.236;-73.040;2023-04-03T03:22:11;-0.50;93.00
31527;DHT22;18136;42.236;-73.040;2023-04-03T03:24:37;-0.50;92.60
31527;DHT22;18136;42.236;-73.040;2023-04-03T03:27:03;-0.60;91.80
31527;DHT22;18136;42.236;-73.040;2023-04-03T03:29:30;-0.60;92.70
31527;DHT22;18136;42.236;-73.040;2023-04-03T03:31:56;-0.60;92.60
31527;DHT22;18136;42.236;-73.040;2023-04-03T03:34:22;-0.60;92.40
31527;DHT22;18136;42.236;-73.040;2023-04-03T03:36:48;-0.60;93.10
31527;DHT22;18136;42.236;-73.040;2023-04-03T03:39:14;-0.60;92.90
31527;DHT22;18136;42.236;-73.040;2023-04-03T03:41:40;-0.70;92.60
31527;DHT22;18136;42.236;-73.040;2023-04-03T03:44:07;-0.70;93.00
31527;DHT22;18136;42.236;-73.040;2023-04-03T03:46:34;-0.70;92.90
31527;DHT22;18136;42.236;-73.040;2023-04-03T03:49:01;-0.70;92.80
31527;DHT22;18136;42.236;-73.040;2023-04-03T03:51:27;-0.80;92.80
31527;DHT22;18136;42.236;-73.040;2023-04-03T03:53:53;-0.80;93.30
31527;DHT22;18136;42.236;-73.040;2023-04-03T03:56:19;-0.80;93.20
31527;DHT22;18136;42.236;-73.040;2023-04-03T03:58:47;-0.80;93.40
31527;DHT22;18136;42.236;-73.040;2023-04-03T04:01:15;-0.80;93.00
31527;DHT22;18136;42.236;-73.040;2023-04-03T04:03:42;-0.90;93.40
31527;DHT22;18136;42.236;-73.040;2023-04-03T04:06:09;-0.90;93.80
31527;DHT22;18136;42.236;-73.040;2023-04-03T04:08:35;-0.80;94.80
31527;DHT22;18136;42.236;-73.040;2023-04-03T04:11:01;-0.90;94.90
31527;DHT22;18136;42.236;-73.040;2023-04-03T04:13:27;-0.90;95.10
31527;DHT22;18136;42.236;-73.040;2023-04-03T04:15:53;-0.90;95.20
31527;DHT22;18136;42.236;-73.040;2023-04-03T04:18:20;-0.90;95.50
31527;DHT22;18136;42.236;-73.040;2023-04-03T04:20:48;-1.00;95.10
31527;DHT22;18136;42.236;-73.040;2023-04-03T04:23:14;-1.00;95.00
31527;DHT22;18136;42.236;-73.040;2023-04-03T04:25:40;-1.00;95.80
31527;DHT22;18136;42.236;-73.040;2023-04-03T04:28:06;-1.00;95.60
31527;DHT22;18136;42.236;-73.040;2023-04-03T04:30:33;-1.00;95.40
31527;DHT22;18136;42.236;-73.040;2023-04-03T04:32:59;-1.00;95.80
31527;DHT22;18136;42.236;-73.040;2023-04-03T04:35:25;-1.10;96.00
31527;DHT22;18136;42.236;-73.040;2023-04-03T04:37:51;-1.10;96.40
31527;DHT22;18136;42.236;-73.040;2023-04-03T04:40:17;-1.10;96.60
31527;DHT22;18136;42.236;-73.040;2023-04-03T04:42:44;-1.10;96.10
31527;DHT22;18136;42.236;-73.040;2023-04-03T04:45:10;-1.10;96.20
31527;DHT22;18136;42.236;-73.040;2023-04-03T04:47:36;-1.10;96.70
31527;DHT22;18136;42.236;-73.040;2023-04-03T04:50:02;-1.10;96.70
31527;DHT22;18136;42.236;-73.040;2023-04-03T04:52:29;-1.10;96.40
31527;DHT22;18136;42.236;-73.040;2023-04-03T04:54:55;-1.20;95.60
31527;DHT22;18136;42.236;-73.040;2023-04-03T04:57:21;-1.20;95.10
31527;DHT22;18136;42.236;-73.040;2023-04-03T04:59:47;-1.30;95.40
31527;DHT22;18136;42.236;-73.040;2023-04-03T05:02:14;-1.30;96.60
31527;DHT22;18136;42.236;-73.040;2023-04-03T05:04:40;-1.30;96.80
31527;DHT22;18136;42.236;-73.040;2023-04-03T05:07:06;-1.30;96.00
31527;DHT22;18136;42.236;-73.040;2023-04-03T05:09:32;-1.40;96.00
31527;DHT22;18136;42.236;-73.040;2023-04-03T05:11:58;-1.40;96.40
31527;DHT22;18136;42.236;-73.040;2023-04-03T05:14:25;-1.40;96.10
31527;DHT22;18136;42.236;-73.040;2023-04-03T05:16:51;-1.50;95.40
31527;DHT22;18136;42.236;-73.040;2023-04-03T05:19:20;-1.50;96.10
31527;DHT22;18136;42.236;-73.040;2023-04-03T05:21:47;-1.60;96.50
31527;DHT22;18136;42.236;-73.040;2023-04-03T05:24:14;-1.60;97.70
31527;DHT22;18136;42.236;-73.040;2023-04-03T05:26:40;-1.60;97.50
31527;DHT22;18136;42.236;-73.040;2023-04-03T05:29:07;-1.60;96.90
31527;DHT22;18136;42.236;-73.040;2023-04-03T05:31:33;-1.70;97.10
31527;DHT22;18136;42.236;-73.040;2023-04-03T05:33:59;-1.70;97.40
31527;DHT22;18136;42.236;-73.040;2023-04-03T05:36:25;-1.70;97.50
31527;DHT22;18136;42.236;-73.040;2023-04-03T05:38:52;-1.70;97.30
31527;DHT22;18136;42.236;-73.040;2023-04-03T05:41:19;-1.80;97.70
31527;DHT22;18136;42.236;-73.040;2023-04-03T05:43:46;-1.80;98.10
31527;DHT22;18136;42.236;-73.040;2023-04-03T05:46:17;-1.80;99.00
31527;DHT22;18136;42.236;-73.040;2023-04-03T05:48:44;-1.90;98.60
31527;DHT22;18136;42.236;-73.040;2023-04-03T05:51:19;-1.90;98.50
31527;DHT22;18136;42.236;-73.040;2023-04-03T05:53:45;-1.90;98.70
31527;DHT22;18136;42.236;-73.040;2023-04-03T05:56:12;-2.00;98.60
31527;DHT22;18136;42.236;-73.040;2023-04-03T05:58:38;-2.00;98.80
31527;DHT22;18136;42.236;-73.040;2023-04-03T06:01:05;-2.00;98.20
31527;DHT22;18136;42.236;-73.040;2023-04-03T06:03:31;-2.10;98.00
31527;DHT22;18136;42.236;-73.040;2023-04-03T06:05:57;-2.10;98.50
31527;DHT22;18136;42.236;-73.040;2023-04-03T06:08:24;-2.20;98.70
31527;DHT22;18136;42.236;-73.040;2023-04-03T06:10:50;-2.20;98.90
31527;DHT22;18136;42.236;-73.040;2023-04-03T06:13:17;-2.20;98.30
31527;DHT22;18136;42.236;-73.040;2023-04-03T06:15:43;-2.20;98.10
31527;DHT22;18136;42.236;-73.040;2023-04-03T06:18:10;-2.30;98.60
31527;DHT22;18136;42.236;-73.040;2023-04-03T06:20:36;-2.30;99.00
31527;DHT22;18136;42.236;-73.040;2023-04-03T06:23:02;-2.30;99.40
31527;DHT22;18136;42.236;-73.040;2023-04-03T06:25:28;-2.30;98.20
31527;DHT22;18136;42.236;-73.040;2023-04-03T06:27:54;-2.40;98.50
31527;DHT22;18136;42.236;-73.040;2023-04-03T06:30:23;-2.40;99.10
31527;DHT22;18136;42.236;-73.040;2023-04-03T06:32:49;-2.40;99.40
31527;DHT22;18136;42.236;-73.040;2023-04-03T06:35:16;-2.40;99.90
31527;DHT22;18136;42.236;-73.040;2023-04-03T06:37:42;-2.50;99.90
31527;DHT22;18136;42.236;-73.040;2023-04-03T06:40:18;-2.50;99.60
31527;DHT22;18136;42.236;-73.040;2023-04-03T06:42:45;-2.50;99.40
31527;DHT22;18136;42.236;-73.040;2023-04-03T06:45:11;-2.50;99.60
31527;DHT22;18136;42.236;-73.040;2023-04-03T06:47:38;-2.60;99.90
31527;DHT22;18136;42.236;-73.040;2023-04-03T06:50:04;-2.60;99.90
31527;DHT22;18136;42.236;-73.040;2023-04-03T06:52:32;-2.60;99.90
31527;DHT22;18136;42.236;-73.040;2023-04-03T06:54:58;-2.60;99.90
31527;DHT22;18136;42.236;-73.040;2023-04-03T06:57:25;-2.60;99.90
31527;DHT22;18136;42.236;-73.040;2023-04-03T06:59:52;-2.70;99.80
31527;DHT22;18136;42.236;-73.040;2023-04-03T07:02:19;-2.70;99.90
31527;DHT22;18136;42.236;-73.040;2023-04-03T07:04:47;-2.80;99.90
31527;DHT22;18136;42.236;-73.040;2023-04-03T07:07:13;-2.80;99.90
31527;DHT22;18136;42.236;-73.040;2023-04-03T07:09:40;-2.80;99.90
31527;DHT22;18136;42.236;-73.040;2023-04-03T07:12:07;-2.80;99.90
31527;DHT22;18136;42.236;-73.040;2023-04-03T07:14:33;-2.90;99.70
31527;DHT22;18136;42.236;-73.040;2023-04-03T07:17:00;-2.90;99.50
31527;DHT22;18136;42.236;-73.040;2023-04-03T07:19:28;-2.90;99.70
31527;DHT22;18136;42.236;-73.040;2023-04-03T07:21:54;-2.90;99.30
31527;DHT22;18136;42.236;-73.040;2023-04-03T07:24:21;-2.90;99.90
31527;DHT22;18136;42.236;-73.040;2023-04-03T07:26:50;-3.00;99.90
31527;DHT22;18136;42.236;-73.040;2023-04-03T07:29:17;-3.00;99.90
31527;DHT22;18136;42.236;-73.040;2023-04-03T07:31:43;-3.00;99.90
31527;DHT22;18136;42.236;-73.040;2023-04-03T07:34:10;-3.00;99.90
31527;DHT22;18136;42.236;-73.040;2023-04-03T07:36:36;-3.00;99.90
31527;DHT22;18136;42.236;-73.040;2023-04-03T07:39:03;-3.10;99.90
31527;DHT22;18136;42.236;-73.040;2023-04-03T07:41:29;-3.10;99.90
31527;DHT22;18136;42.236;-73.040;2023-04-03T07:43:56;-3.10;99.90
31527;DHT22;18136;42.236;-73.040;2023-04-03T07:46:22;-3.20;99.90
31527;DHT22;18136;42.236;-73.040;2023-04-03T07:48:49;-3.20;99.90
31527;DHT22;18136;42.236;-73.040;2023-04-03T07:51:15;-3.20;99.90
31527;DHT22;18136;42.236;-73.040;2023-04-03T07:53:41;-3.20;99.90
31527;DHT22;18136;42.236;-73.040;2023-04-03T07:56:08;-3.20;99.90
31527;DHT22;18136;42.236;-73.040;2023-04-03T07:58:35;-3.20;99.90
31527;DHT22;18136;42.236;-73.040;2023-04-03T08:01:01;-3.20;99.90
31527;DHT22;18136;42.236;-73.040;2023-04-03T08:03:27;-3.30;99.90
31527;DHT22;18136;42.236;-73.040;2023-04-03T08:05:54;-3.20;99.90
31527;DHT22;18136;42.236;-73.040;2023-04-03T08:08:22;-3.30;99.90
31527;DHT22;18136;42.236;-73.040;2023-04-03T08:10:53;-3.20;99.90
31527;DHT22;18136;42.236;-73.040;2023-04-03T08:13:20;-3.30;99.90
31527;DHT22;18136;42.236;-73.040;2023-04-03T08:15:46;-3.30;99.90
31527;DHT22;18136;42.236;-73.040;2023-04-03T08:18:14;-3.30;99.90
31527;DHT22;18136;42.236;-73.040;2023-04-03T08:20:41;-3.30;99.90
31527;DHT22;18136;42.236;-73.040;2023-04-03T08:23:09;-3.30;99.90
31527;DHT22;18136;42.236;-73.040;2023-04-03T08:25:42;-3.40;99.90
31527;DHT22;18136;42.236;-73.040;2023-04-03T08:28:10;-3.40;99.90
31527;DHT22;18136;42.236;-73.040;2023-04-03T08:30:39;-3.40;99.90
31527;DHT22;18136;42.236;-73.040;2023-04-03T08:33:06;-3.40;99.90
31527;DHT22;18136;42.236;-73.040;2023-04-03T08:35:33;-3.40;99.90
31527;DHT22;18136;42.236;-73.040;2023-04-03T08:37:59;-3.40;99.90
31527;DHT22;18136;42.236;-73.040;2023-04-03T08:40:25;-3.40;99.90
31527;DHT22;18136;42.236;-73.040;2023-04-03T08:45:46;-3.50;99.90
31527;DHT22;18136;42.236;-73.040;2023-04-03T08:48:27;-3.50;99.90
31527;DHT22;18136;42.236;-73.040;2023-04-03T08:50:57;-3.50;99.90
31527;DHT22;18136;42.236;-73.040;2023-04-03T08:53:30;-3.50;99.90
31527;DHT22;18136;42.236;-73.040;2023-04-03T08:56:04;-3.60;99.90
31527;DHT22;18136;42.236;-73.040;2023-04-03T08:58:49;-3.60;99.90
31527;DHT22;18136;42.236;-73.040;2023-04-03T09:01:20;-3.60;99.90
31527;DHT22;18136;42.236;-73.040;2023-04-03T09:03:47;-3.60;99.90
31527;DHT22;18136;42.236;-73.040;2023-04-03T09:06:16;-3.60;99.90
31527;DHT22;18136;42.236;-73.040;2023-04-03T09:14:36;-3.60;99.90
31527;DHT22;18136;42.236;-73.040;2023-04-03T09:17:03;-3.60;99.90
31527;DHT22;18136;42.236;-73.040;2023-04-03T09:22:20;-3.70;99.90
31527;DHT22;18136;42.236;-73.040;2023-04-03T09:27:22;-3.70;99.90
31527;DHT22;18136;42.236;-73.040;2023-04-03T09:29:49;-3.70;99.90
31527;DHT22;18136;42.236;-73.040;2023-04-03T09:32:38;-3.80;99.90
31527;DHT22;18136;42.236;-73.040;2023-04-03T09:37:46;-3.80;99.90
31527;DHT22;18136;42.236;-73.040;2023-04-03T09:40:34;-3.80;99.90
31527;DHT22;18136;42.236;-73.040;2023-04-03T09:45:51;-3.80;99.90
31527;DHT22;18136;42.236;-73.040;2023-04-03T09:48:21;-3.80;99.90
31527;DHT22;18136;42.236;-73.040;2023-04-03T09:53:34;-3.80;99.90
31527;DHT22;18136;42.236;-73.040;2023-04-03T10:01:38;-3.80;99.90
31527;DHT22;18136;42.236;-73.040;2023-04-03T10:04:12;-3.80;99.90
31527;DHT22;18136;42.236;-73.040;2023-04-03T10:06:42;-3.80;99.90
31527;DHT22;18136;42.236;-73.040;2023-04-03T10:09:22;-3.80;99.90
31527;DHT22;18136;42.236;-73.040;2023-04-03T10:12:10;-3.80;99.90
31527;DHT22;18136;42.236;-73.040;2023-04-03T10:14:39;-3.80;99.90
31527;DHT22;18136;42.236;-73.040;2023-04-03T10:22:53;-3.90;99.90
31527;DHT22;18136;42.236;-73.040;2023-04-03T10:25:32;-3.90;99.90
31527;DHT22;18136;42.236;-73.040;2023-04-03T10:28:03;-4.00;99.90
31527;DHT22;18136;42.236;-73.040;2023-04-03T10:46:53;-3.80;99.90
31527;DHT22;18136;42.236;-73.040;2023-04-03T10:49:51;-3.80;99.90
31527;DHT22;18136;42.236;-73.040;2023-04-03T10:55:43;-3.80;99.90
31527;DHT22;18136;42.236;-73.040;2023-04-03T10:58:21;-3.80;99.90
31527;DHT22;18136;42.236;-73.040;2023-04-03T11:00:51;-3.80;99.90
31527;DHT22;18136;42.236;-73.040;2023-04-03T11:03:37;-3.70;99.90
31527;DHT22;18136;42.236;-73.040;2023-04-03T11:06:08;-3.70;99.90
31527;DHT22;18136;42.236;-73.040;2023-04-03T11:09:04;-3.60;99.90
31527;DHT22;18136;42.236;-73.040;2023-04-03T11:11:39;-3.60;99.90
31527;DHT22;18136;42.236;-73.040;2023-04-03T11:14:39;-3.60;99.90
31527;DHT22;18136;42.236;-73.040;2023-04-03T11:22:45;-3.60;99.90
31527;DHT22;18136;42.236;-73.040;2023-04-03T11:25:56;-3.50;99.90
31527;DHT22;18136;42.236;-73.040;2023-04-03T11:28:06;-3.50;99.90
31527;DHT22;18136;42.236;-73.040;2023-04-03T11:30:53;-3.40;99.90
31527;DHT22;18136;42.236;-73.040;2023-04-03T11:36:28;-3.20;99.90
31527;DHT22;18136;42.236;-73.040;2023-04-03T11:38:56;-3.10;99.90
31527;DHT22;18136;42.236;-73.040;2023-04-03T11:41:31;-3.10;99.90
31527;DHT22;18136;42.236;-73.040;2023-04-03T11:44:14;-3.00;99.90
31527;DHT22;18136;42.236;-73.040;2023-04-03T11:46:54;-3.00;99.90
31527;DHT22;18136;42.236;-73.040;2023-04-03T11:49:53;-2.90;99.90
31527;DHT22;18136;42.236;-73.040;2023-04-03T12:05:53;-2.40;99.90
31527;DHT22;18136;42.236;-73.040;2023-04-03T12:38:20;-1.30;97.00
31527;DHT22;18136;42.236;-73.040;2023-04-03T12:46:17;-0.90;95.20
31527;DHT22;18136;42.236;-73.040;2023-04-03T12:51:18;-0.70;93.80
31527;DHT22;18136;42.236;-73.040;2023-04-03T12:53:45;-0.60;93.90
31527;DHT22;18136;42.236;-73.040;2023-04-03T12:58:46;-0.30;93.20
31527;DHT22;18136;42.236;-73.040;2023-04-03T13:01:18;-0.20;91.20
31527;DHT22;18136;42.236;-73.040;2023-04-03T13:03:49;-0.10;92.10
31527;DHT22;18136;42.236;-73.040;2023-04-03T13:06:27;0.10;91.00
31527;DHT22;18136;42.236;-73.040;2023-04-03T13:08:56;0.20;91.40
31527;DHT22;18136;42.236;-73.040;2023-04-03T13:11:25;0.40;91.00
31527;DHT22;18136;42.236;-73.040;2023-04-03T13:14:01;0.50;91.40
31527;DHT22;18136;42.236;-73.040;2023-04-03T13:16:29;0.70;91.90
31527;DHT22;18136;42.236;-73.040;2023-04-03T13:18:55;0.90;90.50
31527;DHT22;18136;42.236;-73.040;2023-04-03T13:21:25;1.00;90.30
31527;DHT22;18136;42.236;-73.040;2023-04-03T13:23:56;1.20;88.50
31527;DHT22;18136;42.236;-73.040;2023-04-03T13:26:25;1.40;90.20
31527;DHT22;18136;42.236;-73.040;2023-04-03T13:28:54;1.60;87.90
31527;DHT22;18136;42.236;-73.040;2023-04-03T13:31:29;1.60;84.50
31527;DHT22;18136;42.236;-73.040;2023-04-03T13:34:05;1.80;87.90
31527;DHT22;18136;42.236;-73.040;2023-04-03T13:36:37;1.90;85.30
31527;DHT22;18136;42.236;-73.040;2023-04-03T13:39:28;2.10;88.30
31527;DHT22;18136;42.236;-73.040;2023-04-03T13:41:57;2.20;86.70
31527;DHT22;18136;42.236;-73.040;2023-04-03T13:46:54;2.50;87.10
31527;DHT22;18136;42.236;-73.040;2023-04-03T13:49:31;2.60;85.80
31527;DHT22;18136;42.236;-73.040;2023-04-03T13:51:58;2.70;86.10
31527;DHT22;18136;42.236;-73.040;2023-04-03T13:54:45;2.80;86.20
31527;DHT22;18136;42.236;-73.040;2023-04-03T13:57:14;3.00;83.50
31527;DHT22;18136;42.236;-73.040;2023-04-03T13:59:42;3.10;84.50
31527;DHT22;18136;42.236;-73.040;2023-04-03T14:07:11;3.50;83.00
31527;DHT22;18136;42.236;-73.040;2023-04-03T14:09:37;3.60;83.80
31527;DHT22;18136;42.236;-73.040;2023-04-03T14:12:26;3.70;83.20
31527;DHT22;18136;42.236;-73.040;2023-04-03T14:14:53;3.90;82.70
31527;DHT22;18136;42.236;-73.040;2023-04-03T14:17:23;4.00;80.70
31527;DHT22;18136;42.236;-73.040;2023-04-03T14:19:50;4.20;78.60
31527;DHT22;18136;42.236;-73.040;2023-04-03T14:22:43;4.40;83.30
31527;DHT22;18136;42.236;-73.040;2023-04-03T14:25:10;4.60;83.00
31527;DHT22;18136;42.236;-73.040;2023-04-03T14:27:40;4.70;79.30
31527;DHT22;18136;42.236;-73.040;2023-04-03T14:30:20;4.70;81.80
31527;DHT22;18136;42.236;-73.040;2023-04-03T14:32:47;4.90;82.20
31527;DHT22;18136;42.236;-73.040;2023-04-03T14:35:15;5.20;83.30
31527;DHT22;18136;42.236;-73.040;2023-04-03T14:37:41;5.30;78.90
31527;DHT22;18136;42.236;-73.040;2023-04-03T14:40:11;5.30;78.00
31527;DHT22;18136;42.236;-73.040;2023-04-03T14:42:39;5.50;82.10
31527;DHT22;18136;42.236;-73.040;2023-04-03T14:45:08;5.60;78.80
31527;DHT22;18136;42.236;-73.040;2023-04-03T14:47:41;5.60;78.10
31527;DHT22;18136;42.236;-73.040;2023-04-03T14:50:14;5.80;80.30
31527;DHT22;18136;42.236;-73.040;2023-04-03T14:52:41;6.00;81.80
31527;DHT22;18136;42.236;-73.040;2023-04-03T14:55:08;6.20;79.30
31527;DHT22;18136;42.236;-73.040;2023-04-03T14:57:35;6.40;78.30
31527;DHT22;18136;42.236;-73.040;2023-04-03T15:00:04;6.50;78.60
31527;DHT22;18136;42.236;-73.040;2023-04-03T15:02:32;6.70;81.70
31527;DHT22;18136;42.236;-73.040;2023-04-03T15:05:00;6.90;79.80
31527;DHT22;18136;42.236;-73.040;2023-04-03T15:07:31;7.10;79.30
31527;DHT22;18136;42.236;-73.040;2023-04-03T15:10:33;7.20;77.20
31527;DHT22;18136;42.236;-73.040;2023-04-03T15:12:53;7.30;80.30
31527;DHT22;18136;42.236;-73.040;2023-04-03T15:15:21;7.30;77.50
31527;DHT22;18136;42.236;-73.040;2023-04-03T15:17:51;7.40;80.40
31527;DHT22;18136;42.236;-73.040;2023-04-03T15:20:24;7.60;79.80
31527;DHT22;18136;42.236;-73.040;2023-04-03T15:22:51;7.70;79.90
31527;DHT22;18136;42.236;-73.040;2023-04-03T15:25:17;8.00;80.20
31527;DHT22;18136;42.236;-73.040;2023-04-03T15:27:44;8.10;77.30
31527;DHT22;18136;42.236;-73.040;2023-04-03T15:30:15;8.30;81.70
31527;DHT22;18136;42.236;-73.040;2023-04-03T15:32:42;8.40;78.40
31527;DHT22;18136;42.236;-73.040;2023-04-03T15:35:08;8.50;82.00
31527;DHT22;18136;42.236;-73.040;2023-04-03T15:37:34;8.60;78.60
31527;DHT22;18136;42.236;-73.040;2023-04-03T15:40:01;8.70;78.80
31527;DHT22;18136;42.236;-73.040;2023-04-03T15:42:27;8.90;79.10
31527;DHT22;18136;42.236;-73.040;2023-04-03T15:44:53;9.00;79.70
31527;DHT22;18136;42.236;-73.040;2023-04-03T15:47:20;9.30;82.60
31527;DHT22;18136;42.236;-73.040;2023-04-03T15:49:46;9.50;80.10
31527;DHT22;18136;42.236;-73.040;2023-04-03T15:52:12;9.60;78.40
31527;DHT22;18136;42.236;-73.040;2023-04-03T15:54:38;9.70;80.40
31527;DHT22;18136;42.236;-73.040;2023-04-03T15:57:04;9.60;80.00
31527;DHT22;18136;42.236;-73.040;2023-04-03T15:59:30;9.80;76.10
31527;DHT22;18136;42.236;-73.040;2023-04-03T16:01:58;9.70;75.20
31527;DHT22;18136;42.236;-73.040;2023-04-03T16:04:26;9.60;72.70
31527;DHT22;18136;42.236;-73.040;2023-04-03T16:06:52;9.50;75.70
31527;DHT22;18136;42.236;-73.040;2023-04-03T16:09:19;9.70;78.00
31527;DHT22;18136;42.236;-73.040;2023-04-03T16:11:45;9.90;71.20
31527;DHT22;18136;42.236;-73.040;2023-04-03T16:14:11;10.00;77.00
31527;DHT22;18136;42.236;-73.040;2023-04-03T16:16:37;10.30;74.70
31527;DHT22;18136;42.236;-73.040;2023-04-03T16:19:04;10.40;74.20
31527;DHT22;18136;42.236;-73.040;2023-04-03T16:21:32;10.60;76.70
31527;DHT22;18136;42.236;-73.040;2023-04-03T16:23:58;10.70;77.40
31527;DHT22;18136;42.236;-73.040;2023-04-03T16:26:25;10.80;73.10
31527;DHT22;18136;42.236;-73.040;2023-04-03T16:28:51;10.90;72.80
31527;DHT22;18136;42.236;-73.040;2023-04-03T16:31:18;10.90;74.50
31527;DHT22;18136;42.236;-73.040;2023-04-03T16:33:44;11.00;75.90
31527;DHT22;18136;42.236;-73.040;2023-04-03T16:36:10;11.20;71.40
31527;DHT22;18136;42.236;-73.040;2023-04-03T16:38:36;11.10;74.00
31527;DHT22;18136;42.236;-73.040;2023-04-03T16:41:02;11.10;73.80
31527;DHT22;18136;42.236;-73.040;2023-04-03T16:43:33;11.20;74.80
31527;DHT22;18136;42.236;-73.040;2023-04-03T16:46:01;11.30;73.40
31527;DHT22;18136;42.236;-73.040;2023-04-03T16:48:28;11.60;74.10
31527;DHT22;18136;42.236;-73.040;2023-04-03T16:50:54;11.70;72.80
31527;DHT22;18136;42.236;-73.040;2023-04-03T16:53:22;11.70;72.60
31527;DHT22;18136;42.236;-73.040;2023-04-03T16:55:48;11.70;73.80
31527;DHT22;18136;42.236;-73.040;2023-04-03T16:58:15;11.90;72.70
31527;DHT22;18136;42.236;-73.040;2023-04-03T17:00:41;12.00;71.20
31527;DHT22;18136;42.236;-73.040;2023-04-03T17:03:08;12.10;73.10
31527;DHT22;18136;42.236;-73.040;2023-04-03T17:05:34;12.10;72.70
31527;DHT22;18136;42.236;-73.040;2023-04-03T17:08:00;12.20;75.90
31527;DHT22;18136;42.236;-73.040;2023-04-03T17:10:27;12.30;71.00
31527;DHT22;18136;42.236;-73.040;2023-04-03T17:12:54;12.20;71.50
31527;DHT22;18136;42.236;-73.040;2023-04-03T17:15:20;12.20;74.20
31527;DHT22;18136;42.236;-73.040;2023-04-03T17:17:47;12.40;73.50
31527;DHT22;18136;42.236;-73.040;2023-04-03T17:20:14;12.50;73.10